sensor_id;sensor_type;location;lat;lon;timestamp;pressure;altitude;pressure_sealevel;temperature;humidity
76973;BME280;65907;53.640;10.050;2023-02-18T00:00:03;101284.31;;;22.25;36.47
76973;BME280;65907;53.640;10.050;2023-02-18T00:02:29;101288.16;;;22.20;36.69
76973;BME280;65907;53.640;10.050;2023-02-18T00:04:56;101275.41;;;22.16;36.43
76973;BME280;65907;53.640;10.050;2023-02-18T00:07:24;101273.66;;;22.16;36.66
76973;BME280;65907;53.640;10.050;2023-02-18T00:09:52;101283.16;;;22.17;36.41
76973;BME280;65907;53.640;10.050;2023-02-18T00:12:17;101280.06;;;22.12;36.52
76973;BME280;65907;53.640;10.050;2023-02-18T00:14:42;101284.56;;;22.22;36.37
76973;BME280;65907;53.640;10.050;2023-02-18T00:17:08;101278.13;;;22.26;36.58
76973;BME280;65907;53.640;10.050;2023-02-18T00:19:33;101288.88;;;22.23;36.33
76973;BME280;65907;53.640;10.050;2023-02-18T00:21:58;101271.84;;;22.17;36.60
76973;BME280;65907;53.640;10.050;2023-02-18T00:24:26;101273.16;;;22.23;36.36
76973;BME280;65907;53.640;10.050;2023-02-18T00:26:51;101272.44;;;22.20;36.25
76973;BME280;65907;53.640;10.050;2023-02-18T00:29:19;101270.69;;;22.10;36.56
76973;BME280;65907;53.640;10.050;2023-02-18T00:31:45;101270.53;;;22.11;36.29
76973;BME280;65907;53.640;10.050;2023-02-18T00:34:12;101267.19;;;22.20;36.35
76973;BME280;65907;53.640;10.050;2023-02-18T00:36:38;101275.75;;;22.23;36.46
76973;BME280;65907;53.640;10.050;2023-02-18T00:39:06;101282.06;;;22.20;36.13
76973;BME280;65907;53.640;10.050;2023-02-18T00:41:35;101273.50;;;22.18;36.26
76973;BME280;65907;53.640;10.050;2023-02-18T00:44:00;101265.03;;;22.26;36.03
76973;BME280;65907;53.640;10.050;2023-02-18T00:46:26;101261.50;;;22.15;35.98
76973;BME280;65907;53.640;10.050;2023-02-18T00:48:51;101270.06;;;22.17;36.09
76973;BME280;65907;53.640;10.050;2023-02-18T00:51:17;101272.69;;;22.17;36.38
76973;BME280;65907;53.640;10.050;2023-02-18T00:53:42;101275.66;;;22.13;36.13
76973;BME280;65907;53.640;10.050;2023-02-18T00:56:07;101267.56;;;22.16;36.09
76973;BME280;65907;53.640;10.050;2023-02-18T00:58:35;101275.06;;;22.20;36.10
76973;BME280;65907;53.640;10.050;2023-02-18T01:01:03;101272.69;;;22.17;35.99
76973;BME280;65907;53.640;10.050;2023-02-18T01:03:29;101274.34;;;22.18;36.02
76973;BME280;65907;53.640;10.050;2023-02-18T01:05:54;101270.63;;;22.21;35.83
76973;BME280;65907;53.640;10.050;2023-02-18T01:08:20;101278.50;;;22.21;36.03
76973;BME280;65907;53.640;10.050;2023-02-18T01:10:46;101275.75;;;22.23;35.71
76973;BME280;65907;53.640;10.050;2023-02-18T01:13:12;101279.59;;;22.18;35.90
76973;BME280;65907;53.640;10.050;2023-02-18T01:15:38;101282.91;;;22.20;36.24
76973;BME280;65907;53.640;10.050;2023-02-18T01:18:08;101280.50;;;22.29;35.78
76973;BME280;65907;53.640;10.050;2023-02-18T01:20:34;101281.81;;;22.34;35.58
76973;BME280;65907;53.640;10.050;2023-02-18T01:23:03;101278.72;;;22.29;35.57
76973;BME280;65907;53.640;10.050;2023-02-18T01:25:29;101275.25;;;22.29;35.55
76973;BME280;65907;53.640;10.050;2023-02-18T01:27:54;101277.94;;;22.17;35.81
76973;BME280;65907;53.640;10.050;2023-02-18T01:30:19;101273.00;;;22.24;35.68
76973;BME280;65907;53.640;10.050;2023-02-18T01:32:46;101283.38;;;22.26;35.69
76973;BME280;65907;53.640;10.050;2023-02-18T01:35:14;101275.75;;;22.23;35.71
76973;BME280;65907;53.640;10.050;2023-02-18T01:37:43;101265.28;;;22.23;35.93
76973;BME280;65907;53.640;10.050;2023-02-18T01:40:09;101255.06;;;22.19;35.75
76973;BME280;65907;53.640;10.050;2023-02-18T01:42:37;101266.00;;;22.13;35.67
76973;BME280;65907;53.640;10.050;2023-02-18T01:47:46;101259.19;;;22.22;35.62
76973;BME280;65907;53.640;10.050;2023-02-18T01:50:11;101253.50;;;22.28;35.81
76973;BME280;65907;53.640;10.050;2023-02-18T01:52:37;101258.03;;;22.26;35.48
76973;BME280;65907;53.640;10.050;2023-02-18T01:55:02;101264.78;;;22.29;35.37
76973;BME280;65907;53.640;10.050;2023-02-18T01:57:31;101260.66;;;22.26;35.55
76973;BME280;65907;53.640;10.050;2023-02-18T02:00:09;101243.00;;;22.28;35.55
76973;BME280;65907;53.640;10.050;2023-02-18T02:02:37;101251.94;;;22.26;35.63
76973;BME280;65907;53.640;10.050;2023-02-18T02:05:06;101250.03;;;22.28;35.65
76973;BME280;65907;53.640;10.050;2023-02-18T02:07:32;101238.00;;;22.25;35.35
76973;BME280;65907;53.640;10.050;2023-02-18T02:09:57;101235.63;;;22.22;35.63
76973;BME280;65907;53.640;10.050;2023-02-18T02:22:34;101224.34;;;22.22;35.25
76973;BME280;65907;53.640;10.050;2023-02-18T02:30:11;101222.66;;;22.20;35.50
76973;BME280;65907;53.640;10.050;2023-02-18T02:35:24;101222.41;;;22.24;35.38
76973;BME280;65907;53.640;10.050;2023-02-18T02:38:02;101219.19;;;22.20;35.29
76973;BME280;65907;53.640;10.050;2023-02-18T02:52:40;101197.88;;;22.25;35.20
76973;BME280;65907;53.640;10.050;2023-02-18T02:55:12;101198.84;;;22.24;35.43
76973;BME280;65907;53.640;10.050;2023-02-18T02:57:42;101204.41;;;22.30;35.37
76973;BME280;65907;53.640;10.050;2023-02-18T03:00:08;101196.47;;;22.20;35.23
76973;BME280;65907;53.640;10.050;2023-02-18T03:08:11;101191.72;;;22.14;35.36
76973;BME280;65907;53.640;10.050;2023-02-18T03:10:48;101190.31;;;22.10;35.43
76973;BME280;65907;53.640;10.050;2023-02-18T03:13:23;101187.44;;;22.13;35.33
76973;BME280;65907;53.640;10.050;2023-02-18T03:21:05;101173.28;;;22.16;35.20
76973;BME280;65907;53.640;10.050;2023-02-18T03:23:36;101168.22;;;22.24;35.38
76973;BME280;65907;53.640;10.050;2023-02-18T03:26:03;101163.25;;;22.21;35.13
76973;BME280;65907;53.640;10.050;2023-02-18T03:28:30;101166.63;;;22.12;35.27
76973;BME280;65907;53.640;10.050;2023-02-18T03:31:01;101160.06;;;22.17;35.12
76973;BME280;65907;53.640;10.050;2023-02-18T03:33:34;101159.22;;;22.17;35.16
76973;BME280;65907;53.640;10.050;2023-02-18T03:36:03;101150.91;;;22.12;35.61
76973;BME280;65907;53.640;10.050;2023-02-18T03:40:56;101137.63;;;22.25;35.10
76973;BME280;65907;53.640;10.050;2023-02-18T03:43:24;101136.34;;;22.19;35.02
76973;BME280;65907;53.640;10.050;2023-02-18T03:45:49;101136.72;;;22.14;35.37
76973;BME280;65907;53.640;10.050;2023-02-18T03:48:17;101138.84;;;22.20;35.43
76973;BME280;65907;53.640;10.050;2023-02-18T03:50:43;101123.63;;;22.14;35.12
76973;BME280;65907;53.640;10.050;2023-02-18T03:53:08;101130.53;;;22.15;35.19
76973;BME280;65907;53.640;10.050;2023-02-18T03:55:33;101125.41;;;22.14;35.38
76973;BME280;65907;53.640;10.050;2023-02-18T03:58:01;101126.00;;;22.17;35.20
76973;BME280;65907;53.640;10.050;2023-02-18T04:00:26;101120.06;;;22.15;35.24
76973;BME280;65907;53.640;10.050;2023-02-18T04:02:51;101119.66;;;22.20;35.30
76973;BME280;65907;53.640;10.050;2023-02-18T04:05:16;101118.00;;;22.19;35.21
76973;BME280;65907;53.640;10.050;2023-02-18T04:07:42;101116.22;;;22.19;35.27
76973;BME280;65907;53.640;10.050;2023-02-18T04:10:07;101115.66;;;22.16;35.35
76973;BME280;65907;53.640;10.050;2023-02-18T04:12:32;101110.03;;;22.20;34.94
76973;BME280;65907;53.640;10.050;2023-02-18T04:14:58;101107.19;;;22.12;35.26
76973;BME280;65907;53.640;10.050;2023-02-18T04:17:25;101109.06;;;22.22;35.20
76973;BME280;65907;53.640;10.050;2023-02-18T04:19:53;101110.16;;;22.19;35.43
76973;BME280;65907;53.640;10.050;2023-02-18T04:22:18;101110.78;;;22.11;35.32
76973;BME280;65907;53.640;10.050;2023-02-18T04:24:43;101112.44;;;22.12;35.39
76973;BME280;65907;53.640;10.050;2023-02-18T04:27:17;101107.19;;;22.12;35.46
76973;BME280;65907;53.640;10.050;2023-02-18T04:29:42;101109.59;;;22.15;35.12
76973;BME280;65907;53.640;10.050;2023-02-18T04:32:07;101095.13;;;22.21;35.24
76973;BME280;65907;53.640;10.050;2023-02-18T04:34:32;101098.53;;;22.12;35.60
76973;BME280;65907;53.640;10.050;2023-02-18T04:36:57;101098.72;;;22.20;35.18
76973;BME280;65907;53.640;10.050;2023-02-18T04:39:23;101097.06;;;22.19;35.02
76973;BME280;65907;53.640;10.050;2023-02-18T04:41:48;101088.50;;;22.17;34.95
76973;BME280;65907;53.640;10.050;2023-02-18T04:44:13;101094.94;;;22.13;35.24
76973;BME280;65907;53.640;10.050;2023-02-18T04:46:39;101083.88;;;22.09;35.25
76973;BME280;65907;53.640;10.050;2023-02-18T04:49:04;101081.34;;;22.19;35.25
76973;BME280;65907;53.640;10.050;2023-02-18T04:51:30;101080.19;;;22.12;35.13
76973;BME280;65907;53.640;10.050;2023-02-18T04:53:56;101075.41;;;22.17;35.36
76973;BME280;65907;53.640;10.050;2023-02-18T04:56:21;101066.72;;;22.16;35.31
76973;BME280;65907;53.640;10.050;2023-02-18T04:58:46;101072.41;;;22.22;35.34
76973;BME280;65907;53.640;10.050;2023-02-18T05:01:14;101059.09;;;22.13;35.07
76973;BME280;65907;53.640;10.050;2023-02-18T05:03:39;101067.72;;;22.25;35.09
76973;BME280;65907;53.640;10.050;2023-02-18T05:06:04;101066.47;;;22.19;35.19
76973;BME280;65907;53.640;10.050;2023-02-18T05:08:29;101055.16;;;22.19;35.30
76973;BME280;65907;53.640;10.050;2023-02-18T05:10:55;101048.13;;;22.19;35.08
76973;BME280;65907;53.640;10.050;2023-02-18T05:13:20;101049.09;;;22.18;35.28
76973;BME280;65907;53.640;10.050;2023-02-18T05:15:46;101037.19;;;22.14;35.26
76973;BME280;65907;53.640;10.050;2023-02-18T05:18:11;101031.84;;;22.16;35.29
76973;BME280;65907;53.640;10.050;2023-02-18T05:20:39;101032.41;;;22.19;34.92
76973;BME280;65907;53.640;10.050;2023-02-18T05:23:04;101036.28;;;22.25;35.05
76973;BME280;65907;53.640;10.050;2023-02-18T05:25:32;101033.44;;;22.28;35.03
76973;BME280;65907;53.640;10.050;2023-02-18T05:27:57;101023.44;;;22.22;34.98
76973;BME280;65907;53.640;10.050;2023-02-18T05:30:22;101019.59;;;22.16;35.42
76973;BME280;65907;53.640;10.050;2023-02-18T05:32:50;101021.03;;;22.30;35.04
76973;BME280;65907;53.640;10.050;2023-02-18T05:35:16;101019.06;;;22.23;35.03
76973;BME280;65907;53.640;10.050;2023-02-18T05:37:41;101010.81;;;22.27;35.02
76973;BME280;65907;53.640;10.050;2023-02-18T05:40:07;101014.94;;;22.30;35.11
76973;BME280;65907;53.640;10.050;2023-02-18T05:42:35;101001.84;;;22.30;35.07
76973;BME280;65907;53.640;10.050;2023-02-18T05:45:01;100996.19;;;22.25;35.16
76973;BME280;65907;53.640;10.050;2023-02-18T05:47:26;100982.66;;;22.19;34.88
76973;BME280;65907;53.640;10.050;2023-02-18T05:49:51;100981.31;;;22.35;35.24
76973;BME280;65907;53.640;10.050;2023-02-18T05:52:16;100982.38;;;22.23;34.88
76973;BME280;65907;53.640;10.050;2023-02-18T05:54:42;100976.19;;;22.24;34.94
76973;BME280;65907;53.640;10.050;2023-02-18T05:57:09;100968.19;;;22.25;35.02
76973;BME280;65907;53.640;10.050;2023-02-18T05:59:39;100973.84;;;22.20;34.82
76973;BME280;65907;53.640;10.050;2023-02-18T06:02:04;100967.00;;;22.29;35.14
76973;BME280;65907;53.640;10.050;2023-02-18T06:04:29;100963.91;;;22.24;35.31
76973;BME280;65907;53.640;10.050;2023-02-18T06:06:54;100961.16;;;22.26;35.26
76973;BME280;65907;53.640;10.050;2023-02-18T06:09:20;100950.25;;;22.20;35.19
76973;BME280;65907;53.640;10.050;2023-02-18T06:11:45;100948.19;;;22.24;34.86
76973;BME280;65907;53.640;10.050;2023-02-18T06:14:10;100935.94;;;22.25;35.16
76973;BME280;65907;53.640;10.050;2023-02-18T06:16:36;100929.44;;;22.19;35.31
76973;BME280;65907;53.640;10.050;2023-02-18T06:19:01;100920.50;;;22.22;35.22
76973;BME280;65907;53.640;10.050;2023-02-18T06:21:26;100929.44;;;22.19;35.22
76973;BME280;65907;53.640;10.050;2023-02-18T06:23:51;100920.19;;;22.15;35.29
76973;BME280;65907;53.640;10.050;2023-02-18T06:26:16;100910.28;;;22.18;35.43
76973;BME280;65907;53.640;10.050;2023-02-18T06:28:42;100904.25;;;22.28;34.84
76973;BME280;65907;53.640;10.050;2023-02-18T06:31:07;100894.72;;;22.27;35.10
76973;BME280;65907;53.640;10.050;2023-02-18T06:33:35;100894.84;;;22.15;35.31
76973;BME280;65907;53.640;10.050;2023-02-18T06:36:06;100882.31;;;22.29;35.14
76973;BME280;65907;53.640;10.050;2023-02-18T06:38:34;100876.38;;;22.27;35.24
76973;BME280;65907;53.640;10.050;2023-02-18T06:41:02;100878.69;;;22.20;35.25
76973;BME280;65907;53.640;10.050;2023-02-18T06:43:30;100872.38;;;22.23;35.33
76973;BME280;65907;53.640;10.050;2023-02-18T06:45:58;100868.91;;;22.22;35.01
76973;BME280;65907;53.640;10.050;2023-02-18T06:48:23;100878.88;;;22.28;35.12
76973;BME280;65907;53.640;10.050;2023-02-18T06:50:49;100866.84;;;22.16;35.35
76973;BME280;65907;53.640;10.050;2023-02-18T06:53:14;100858.31;;;22.24;35.16
76973;BME280;65907;53.640;10.050;2023-02-18T06:55:41;100857.06;;;22.18;35.14
76973;BME280;65907;53.640;10.050;2023-02-18T06:58:06;100856.25;;;22.17;35.47
76973;BME280;65907;53.640;10.050;2023-02-18T07:00:31;100851.13;;;22.16;35.30
76973;BME280;65907;53.640;10.050;2023-02-18T07:02:59;100846.28;;;22.11;35.15
76973;BME280;65907;53.640;10.050;2023-02-18T07:05:24;100836.09;;;22.18;35.43
76973;BME280;65907;53.640;10.050;2023-02-18T07:07:50;100827.84;;;22.23;35.03
76973;BME280;65907;53.640;10.050;2023-02-18T07:10:18;100825.78;;;22.16;35.35
76973;BME280;65907;53.640;10.050;2023-02-18T07:12:43;100827.66;;;22.14;35.21
76973;BME280;65907;53.640;10.050;2023-02-18T07:15:09;100817.09;;;22.26;35.27
76973;BME280;65907;53.640;10.050;2023-02-18T07:17:34;100807.44;;;22.16;35.55
76973;BME280;65907;53.640;10.050;2023-02-18T07:19:59;100811.97;;;22.14;35.32
76973;BME280;65907;53.640;10.050;2023-02-18T07:22:27;100810.97;;;21.96;35.58
76973;BME280;65907;53.640;10.050;2023-02-18T07:24:53;100810.50;;;21.90;35.84
76973;BME280;65907;53.640;10.050;2023-02-18T07:27:21;100802.22;;;21.54;36.57
76973;BME280;65907;53.640;10.050;2023-02-18T07:29:49;100795.59;;;21.81;36.16
76973;BME280;65907;53.640;10.050;2023-02-18T07:32:15;100790.97;;;21.95;36.18
76973;BME280;65907;53.640;10.050;2023-02-18T07:34:40;100775.16;;;22.06;35.87
76973;BME280;65907;53.640;10.050;2023-02-18T07:37:05;100774.56;;;22.02;35.83
76973;BME280;65907;53.640;10.050;2023-02-18T07:39:38;100769.63;;;22.09;35.82
76973;BME280;65907;53.640;10.050;2023-02-18T07:42:07;100769.81;;;22.17;35.65
76973;BME280;65907;53.640;10.050;2023-02-18T07:44:33;100763.72;;;22.17;35.56
76973;BME280;65907;53.640;10.050;2023-02-18T07:46:58;100751.31;;;22.19;35.73
76973;BME280;65907;53.640;10.050;2023-02-18T07:49:26;100756.44;;;22.20;35.64
76973;BME280;65907;53.640;10.050;2023-02-18T07:51:51;100753.53;;;22.14;35.68
76973;BME280;65907;53.640;10.050;2023-02-18T07:54:19;100750.53;;;22.18;35.75
76973;BME280;65907;53.640;10.050;2023-02-18T07:56:45;100742.91;;;22.05;35.90
76973;BME280;65907;53.640;10.050;2023-02-18T07:59:10;100742.75;;;22.07;35.69
76973;BME280;65907;53.640;10.050;2023-02-18T08:01:38;100737.69;;;22.15;35.79
76973;BME280;65907;53.640;10.050;2023-02-18T08:04:04;100734.50;;;22.12;36.13
76973;BME280;65907;53.640;10.050;2023-02-18T08:08:59;100724.72;;;22.14;35.85
76973;BME280;65907;53.640;10.050;2023-02-18T08:11:26;100727.47;;;22.22;35.87
76973;BME280;65907;53.640;10.050;2023-02-18T08:13:51;100726.00;;;22.29;35.82
76973;BME280;65907;53.640;10.050;2023-02-18T08:16:17;100719.78;;;22.30;35.51
76973;BME280;65907;53.640;10.050;2023-02-18T08:18:43;100728.88;;;22.36;35.55
76973;BME280;65907;53.640;10.050;2023-02-18T08:21:08;100720.31;;;22.34;35.76
76973;BME280;65907;53.640;10.050;2023-02-18T08:23:34;100726.13;;;22.38;35.51
76973;BME280;65907;53.640;10.050;2023-02-18T08:25:59;100713.03;;;22.38;35.48
76973;BME280;65907;53.640;10.050;2023-02-18T08:28:25;100710.97;;;22.31;35.65
76973;BME280;65907;53.640;10.050;2023-02-18T08:30:51;100707.22;;;22.24;35.76
76973;BME280;65907;53.640;10.050;2023-02-18T08:33:17;100712.47;;;22.34;35.58
76973;BME280;65907;53.640;10.050;2023-02-18T08:35:45;100704.06;;;22.20;35.69
76973;BME280;65907;53.640;10.050;2023-02-18T08:38:11;100708.63;;;22.18;35.73
76973;BME280;65907;53.640;10.050;2023-02-18T08:40:36;100694.56;;;22.19;35.76
76973;BME280;65907;53.640;10.050;2023-02-18T08:43:04;100688.88;;;22.14;35.71
76973;BME280;65907;53.640;10.050;2023-02-18T08:45:30;100696.88;;;22.13;35.79
76973;BME280;65907;53.640;10.050;2023-02-18T08:47:55;100697.00;;;22.21;35.93
76973;BME280;65907;53.640;10.050;2023-02-18T08:50:28;100684.59;;;22.13;35.78
76973;BME280;65907;53.640;10.050;2023-02-18T08:52:56;100677.47;;;22.15;35.71
76973;BME280;65907;53.640;10.050;2023-02-18T08:55:28;100683.38;;;22.17;36.03
76973;BME280;65907;53.640;10.050;2023-02-18T08:57:53;100679.81;;;22.18;36.02
76973;BME280;65907;53.640;10.050;2023-02-18T09:00:18;100676.22;;;22.29;35.67
76973;BME280;65907;53.640;10.050;2023-02-18T09:02:43;100674.41;;;22.20;36.02
76973;BME280;65907;53.640;10.050;2023-02-18T09:05:09;100671.78;;;22.20;35.84
76973;BME280;65907;53.640;10.050;2023-02-18T09:07:36;100671.94;;;22.18;35.66
76973;BME280;65907;53.640;10.050;2023-02-18T09:10:04;100669.59;;;22.15;35.80
76973;BME280;65907;53.640;10.050;2023-02-18T09:12:29;100672.06;;;22.17;36.07
76973;BME280;65907;53.640;10.050;2023-02-18T09:14:54;100658.16;;;21.97;36.31
76973;BME280;65907;53.640;10.050;2023-02-18T09:17:24;100652.06;;;21.86;36.42
76973;BME280;65907;53.640;10.050;2023-02-18T09:19:49;100651.94;;;21.98;36.22
76973;BME280;65907;53.640;10.050;2023-02-18T09:22:15;100641.47;;;21.88;36.32
76973;BME280;65907;53.640;10.050;2023-02-18T09:24:40;100654.00;;;22.04;36.23
76973;BME280;65907;53.640;10.050;2023-02-18T09:27:06;100643.41;;;22.05;36.05
76973;BME280;65907;53.640;10.050;2023-02-18T09:29:33;100647.25;;;22.11;35.85
76973;BME280;65907;53.640;10.050;2023-02-18T09:32:02;100653.72;;;22.07;36.16
76973;BME280;65907;53.640;10.050;2023-02-18T09:34:29;100648.38;;;22.09;35.94
76973;BME280;65907;53.640;10.050;2023-02-18T09:36:55;100646.44;;;22.11;36.12
76973;BME280;65907;53.640;10.050;2023-02-18T09:39:22;100655.66;;;21.95;36.37
76973;BME280;65907;53.640;10.050;2023-02-18T09:41:54;100656.06;;;22.10;35.90
76973;BME280;65907;53.640;10.050;2023-02-18T09:44:22;100658.00;;;22.08;36.06
76973;BME280;65907;53.640;10.050;2023-02-18T09:46:50;100651.00;;;22.09;36.11
76973;BME280;65907;53.640;10.050;2023-02-18T09:49:17;100639.84;;;22.16;36.03
76973;BME280;65907;53.640;10.050;2023-02-18T09:51:43;100640.09;;;22.13;35.86
76973;BME280;65907;53.640;10.050;2023-02-18T09:54:13;100641.31;;;22.09;36.32
76973;BME280;65907;53.640;10.050;2023-02-18T09:56:40;100631.81;;;22.08;36.25
76973;BME280;65907;53.640;10.050;2023-02-18T09:59:16;100640.53;;;22.09;36.16
76973;BME280;65907;53.640;10.050;2023-02-18T10:01:42;100643.81;;;22.01;36.38
76973;BME280;65907;53.640;10.050;2023-02-18T10:04:14;100638.19;;;22.05;36.34
76973;BME280;65907;53.640;10.050;2023-02-18T10:06:40;100647.53;;;21.98;36.71
76973;BME280;65907;53.640;10.050;2023-02-18T10:09:15;100636.78;;;22.01;36.84
76973;BME280;65907;53.640;10.050;2023-02-18T10:11:47;100627.13;;;21.92;37.10
76973;BME280;65907;53.640;10.050;2023-02-18T10:14:13;100620.94;;;21.93;36.84
76973;BME280;65907;53.640;10.050;2023-02-18T10:16:40;100628.66;;;22.04;36.46
76973;BME280;65907;53.640;10.050;2023-02-18T10:19:18;100628.50;;;22.06;36.51
76973;BME280;65907;53.640;10.050;2023-02-18T10:21:44;100627.94;;;22.02;36.71
76973;BME280;65907;53.640;10.050;2023-02-18T10:24:32;100634.72;;;21.95;36.77
76973;BME280;65907;53.640;10.050;2023-02-18T10:27:14;100625.09;;;21.96;37.30
76973;BME280;65907;53.640;10.050;2023-02-18T10:29:41;100633.34;;;21.91;37.42
76973;BME280;65907;53.640;10.050;2023-02-18T10:32:26;100625.47;;;21.81;37.98
76973;BME280;65907;53.640;10.050;2023-02-18T10:50:39;100625.03;;;22.45;37.28
76973;BME280;65907;53.640;10.050;2023-02-18T10:53:12;100625.72;;;22.57;37.28
76973;BME280;65907;53.640;10.050;2023-02-18T10:55:43;100600.47;;;22.66;36.89
76973;BME280;65907;53.640;10.050;2023-02-18T10:58:51;100614.31;;;22.38;37.47
76973;BME280;65907;53.640;10.050;2023-02-18T11:00:58;100610.16;;;22.45;37.69
76973;BME280;65907;53.640;10.050;2023-02-18T11:03:35;100606.59;;;22.37;38.05
76973;BME280;65907;53.640;10.050;2023-02-18T11:06:02;100594.06;;;22.50;37.55
76973;BME280;65907;53.640;10.050;2023-02-18T11:08:28;100607.25;;;22.58;37.90
76973;BME280;65907;53.640;10.050;2023-02-18T11:11:05;100617.03;;;22.66;37.80
76973;BME280;65907;53.640;10.050;2023-02-18T11:13:35;100606.56;;;22.66;37.66
76973;BME280;65907;53.640;10.050;2023-02-18T11:16:01;100610.16;;;22.65;37.75
76973;BME280;65907;53.640;10.050;2023-02-18T11:18:29;100609.03;;;22.58;37.81
76973;BME280;65907;53.640;10.050;2023-02-18T11:20:57;100605.13;;;22.72;37.46
76973;BME280;65907;53.640;10.050;2023-02-18T11:23:23;100617.75;;;22.39;38.92
76973;BME280;65907;53.640;10.050;2023-02-18T11:26:03;100614.72;;;22.63;38.01
76973;BME280;65907;53.640;10.050;2023-02-18T11:28:34;100619.22;;;22.71;38.15
76973;BME280;65907;53.640;10.050;2023-02-18T11:31:02;100619.78;;;22.74;38.48
76973;BME280;65907;53.640;10.050;2023-02-18T11:33:39;100614.28;;;22.58;38.90
76973;BME280;65907;53.640;10.050;2023-02-18T11:36:50;100609.88;;;22.39;37.96
76973;BME280;65907;53.640;10.050;2023-02-18T11:38:57;100605.22;;;22.32;37.94
76973;BME280;65907;53.640;10.050;2023-02-18T11:41:57;100617.91;;;22.27;38.56
76973;BME280;65907;53.640;10.050;2023-02-18T11:44:20;100616.38;;;22.34;38.27
76973;BME280;65907;53.640;10.050;2023-02-18T11:49:24;100607.44;;;22.17;39.10
76973;BME280;65907;53.640;10.050;2023-02-18T11:51:53;100619.97;;;22.04;39.09
76973;BME280;65907;53.640;10.050;2023-02-18T11:56:44;100627.97;;;22.12;38.48
76973;BME280;65907;53.640;10.050;2023-02-18T11:59:20;100601.66;;;22.04;38.52
76973;BME280;65907;53.640;10.050;2023-02-18T12:01:46;100607.84;;;22.03;38.49
76973;BME280;65907;53.640;10.050;2023-02-18T12:04:18;100604.25;;;21.94;38.42
76973;BME280;65907;53.640;10.050;2023-02-18T12:06:47;100600.97;;;22.02;38.29
76973;BME280;65907;53.640;10.050;2023-02-18T12:11:40;100606.88;;;22.04;38.16
76973;BME280;65907;53.640;10.050;2023-02-18T12:22:05;100607.28;;;22.29;38.09
76973;BME280;65907;53.640;10.050;2023-02-18T12:32:18;100633.34;;;21.91;38.48
76973;BME280;65907;53.640;10.050;2023-02-18T12:37:58;100618.19;;;21.85;38.10
76973;BME280;65907;53.640;10.050;2023-02-18T12:40:16;100622.19;;;21.89;38.22
76973;BME280;65907;53.640;10.050;2023-02-18T12:43:01;100624.38;;;22.13;37.67
76973;BME280;65907;53.640;10.050;2023-02-18T12:56:21;100624.13;;;22.26;37.46
76973;BME280;65907;53.640;10.050;2023-02-18T12:59:03;100624.38;;;22.33;37.12
76973;BME280;65907;53.640;10.050;2023-02-18T13:02:05;100636.78;;;22.31;37.22
76973;BME280;65907;53.640;10.050;2023-02-18T13:04:32;100633.34;;;22.30;37.56
76973;BME280;65907;53.640;10.050;2023-02-18T13:14:35;100634.84;;;22.43;37.46
76973;BME280;65907;53.640;10.050;2023-02-18T13:17:06;100635.28;;;22.28;37.03
76973;BME280;65907;53.640;10.050;2023-02-18T13:22:07;100640.06;;;22.33;37.27
76973;BME280;65907;53.640;10.050;2023-02-18T13:24:35;100659.38;;;22.42;36.91
76973;BME280;65907;53.640;10.050;2023-02-18T13:30:15;100649.75;;;22.13;37.55
76973;BME280;65907;53.640;10.050;2023-02-18T13:40:18;100654.41;;;22.09;37.76
76973;BME280;65907;53.640;10.050;2023-02-18T13:42:47;100656.75;;;22.22;37.66
76973;BME280;65907;53.640;10.050;2023-02-18T13:45:22;100661.19;;;22.31;37.01
76973;BME280;65907;53.640;10.050;2023-02-18T13:47:50;100657.03;;;22.09;37.65
76973;BME280;65907;53.640;10.050;2023-02-18T13:52:50;100659.81;;;22.47;37.19
76973;BME280;65907;53.640;10.050;2023-02-18T13:55:20;100665.31;;;22.44;36.87
76973;BME280;65907;53.640;10.050;2023-02-18T13:57:46;100658.72;;;22.49;36.86
76973;BME280;65907;53.640;10.050;2023-02-18T14:00:19;100662.56;;;22.35;37.18
76973;BME280;65907;53.640;10.050;2023-02-18T14:02:59;100667.81;;;22.26;37.21
76973;BME280;65907;53.640;10.050;2023-02-18T14:05:37;100670.03;;;22.20;37.32
76973;BME280;65907;53.640;10.050;2023-02-18T14:08:13;100667.13;;;22.24;37.06
76973;BME280;65907;53.640;10.050;2023-02-18T14:10:38;100673.59;;;22.19;37.21
76973;BME280;65907;53.640;10.050;2023-02-18T14:13:21;100679.66;;;22.20;37.42
76973;BME280;65907;53.640;10.050;2023-02-18T14:23:41;100681.59;;;22.18;37.14
76973;BME280;65907;53.640;10.050;2023-02-18T14:28:39;100692.22;;;22.16;37.40
76973;BME280;65907;53.640;10.050;2023-02-18T14:38:53;100719.75;;;22.11;37.27
76973;BME280;65907;53.640;10.050;2023-02-18T14:44:00;100726.09;;;22.18;37.45
76973;BME280;65907;53.640;10.050;2023-02-18T14:51:30;100715.78;;;22.16;37.30
76973;BME280;65907;53.640;10.050;2023-02-18T14:53:56;100726.63;;;22.02;37.90
76973;BME280;65907;53.640;10.050;2023-02-18T14:56:26;100717.16;;;22.20;37.64
76973;BME280;65907;53.640;10.050;2023-02-18T14:59:00;100720.19;;;22.26;37.61
76973;BME280;65907;53.640;10.050;2023-02-18T15:01:31;100732.03;;;22.20;37.65
76973;BME280;65907;53.640;10.050;2023-02-18T15:03:56;100724.34;;;22.28;37.57
76973;BME280;65907;53.640;10.050;2023-02-18T15:06:40;100735.34;;;22.32;37.36
76973;BME280;65907;53.640;10.050;2023-02-18T15:09:17;100741.97;;;22.26;37.79
76973;BME280;65907;53.640;10.050;2023-02-18T15:11:53;100732.38;;;22.46;37.48
76973;BME280;65907;53.640;10.050;2023-02-18T15:14:20;100734.91;;;22.07;38.48